createdAt,value
2022-08-17T00:01:29.609Z,69642.13
2022-08-17T00:03:59.213Z,69645.97
2022-08-17T00:06:28.967Z,69628.41
2022-08-17T00:09:00.146Z,69593.72
2022-08-17T00:11:32.182Z,69617.06
2022-08-17T00:14:00.891Z,69637.06
2022-08-17T00:16:56.660Z,69633.38
2022-08-17T00:19:22.951Z,69624.41
2022-08-17T00:22:29.598Z,69609.94
2022-08-17T00:24:37.804Z,69591.09
2022-08-17T00:27:04.820Z,69584.06
2022-08-17T00:29:31.868Z,69578.09
2022-08-17T00:31:58.792Z,69575.81
2022-08-17T00:34:25.787Z,69583.66
2022-08-17T00:36:54.950Z,69569.53
2022-08-17T00:39:21.875Z,69566.53
2022-08-17T00:41:48.954Z,69563.84
2022-08-17T00:44:16.526Z,69573.38
2022-08-17T00:46:44.964Z,69574.53
2022-08-17T00:49:13.038Z,69562.13
2022-08-17T00:51:50.228Z,69562.69
2022-08-17T00:54:26.609Z,69551.22
2022-08-17T00:57:02.522Z,69556.78
2022-08-17T00:59:31.844Z,69559.28
2022-08-17T01:01:59.211Z,69557.59
2022-08-17T01:04:27.927Z,69534.09
2022-08-17T01:06:55.129Z,69532.06
2022-08-17T01:09:22.258Z,69529.78
2022-08-17T01:11:52.220Z,69521.94
2022-08-17T01:14:21.501Z,69530.75
2022-08-17T01:16:50.569Z,69526.34
2022-08-17T01:19:20.247Z,69541.19
2022-08-17T01:21:54.957Z,69530.50
2022-08-17T01:24:22.163Z,69520.06
2022-08-17T01:26:49.396Z,69507.25
2022-08-17T01:29:16.783Z,69499.66
2022-08-17T01:31:48.125Z,69494.09
2022-08-17T01:34:15.808Z,69485.53
2022-08-17T01:36:45.963Z,69489.78
2022-08-17T01:39:34.441Z,69489.38
2022-08-17T01:42:07.429Z,69488.41
2022-08-17T01:44:34.437Z,69481.22
2022-08-17T01:47:05.939Z,69470.69
2022-08-17T01:49:33.103Z,69441.16
2022-08-17T01:52:04.782Z,69460.81
2022-08-17T01:54:32.059Z,69454.50
2022-08-17T01:56:59.160Z,69455.81
2022-08-17T01:59:26.181Z,69461.38
2022-08-17T02:01:53.615Z,69456.56
2022-08-17T02:04:20.659Z,69468.22
2022-08-17T02:06:53.074Z,69466.50
2022-08-17T02:09:25.816Z,69460.97
2022-08-17T02:11:54.567Z,69456.06
2022-08-17T02:14:21.776Z,69452.97
2022-08-17T02:16:48.980Z,69461.38
2022-08-17T02:19:16.775Z,69452.81
2022-08-17T02:21:45.707Z,69453.94
2022-08-17T02:24:17.829Z,69456.06
2022-08-17T02:27:05.404Z,69442.34
2022-08-17T02:29:32.507Z,69398.34
2022-08-17T02:32:01.700Z,69405.41
2022-08-17T02:34:29.134Z,69395.53
2022-08-17T02:36:56.180Z,69399.28
2022-08-17T02:39:23.143Z,69401.41
2022-08-17T02:41:50.326Z,69396.44
2022-08-17T02:44:38.703Z,69397.59
2022-08-17T02:47:04.865Z,69383.50
2022-08-17T02:49:31.846Z,69392.44
2022-08-17T02:51:58.896Z,69372.47
2022-08-17T02:54:39.963Z,69368.88
2022-08-17T02:57:09.903Z,69372.28
2022-08-17T02:59:37.612Z,69398.56
2022-08-17T03:02:06.632Z,69382.59
2022-08-17T03:04:35.288Z,69363.16
2022-08-17T03:07:03.651Z,69374.00
2022-08-17T03:09:30.764Z,69411.53
2022-08-17T03:12:07.541Z,69408.84
2022-08-17T03:14:41.253Z,69380.28
2022-08-17T03:17:10.145Z,69368.88
2022-08-17T03:19:39.681Z,69352.72
2022-08-17T03:22:36.229Z,69337.25
2022-08-17T03:24:58.222Z,69332.50
2022-08-17T03:27:25.356Z,69327.94
2022-08-17T03:29:52.359Z,69340.88
2022-08-17T03:32:20.823Z,69344.31
2022-08-17T03:34:48.202Z,69335.38
2022-08-17T03:37:15.284Z,69334.44
2022-08-17T03:39:42.917Z,69343.41
2022-08-17T03:42:31.317Z,69337.25
2022-08-17T03:45:00.494Z,69360.28
2022-08-17T03:48:03.350Z,69344.72
2022-08-17T03:50:48.983Z,69341.47
2022-08-17T03:53:35.559Z,69337.31
2022-08-17T03:56:22.340Z,69334.06
2022-08-17T03:58:49.982Z,69330.44
2022-08-17T04:01:18.082Z,69322.22
2022-08-17T04:03:45.088Z,69324.91
2022-08-17T04:06:12.071Z,69338.28
2022-08-17T04:08:39.108Z,69303.63
2022-08-17T04:11:06.121Z,69312.94
2022-08-17T04:13:33.233Z,69335.78
2022-08-17T04:16:00.413Z,69320.75
2022-08-17T04:18:27.433Z,69293.34
2022-08-17T04:20:54.468Z,69281.56
2022-08-17T04:23:23.299Z,69255.72
2022-08-17T04:25:51.403Z,69272.28
2022-08-17T04:28:18.901Z,69269.19
2022-08-17T04:30:47.477Z,69240.88
2022-08-17T04:33:16.873Z,69262.16
2022-08-17T04:35:45.933Z,69254.16
2022-08-17T04:38:15.086Z,69248.88
2022-08-17T04:41:01.168Z,69266.53
2022-08-17T04:43:28.676Z,69266.13
2022-08-17T04:45:57.448Z,69271.50
2022-08-17T04:48:29.857Z,69269.38
2022-08-17T04:51:05.675Z,69272.28
2022-08-17T04:53:32.890Z,69269.19
2022-08-17T04:55:59.875Z,69276.25
2022-08-17T04:58:26.849Z,69279.84
2022-08-17T05:00:54.078Z,69277.38
2022-08-17T05:03:21.262Z,69301.34
2022-08-17T05:05:49.769Z,69314.31
2022-08-17T05:08:18.611Z,69310.81
2022-08-17T05:10:46.140Z,69307.78
2022-08-17T05:13:15.707Z,69292.78
2022-08-17T05:15:44.916Z,69307.22
2022-08-17T05:18:12.249Z,69298.09
2022-08-17T05:20:40.351Z,69294.09
2022-08-17T05:23:08.752Z,69300.97
2022-08-17T05:25:37.435Z,69319.97
2022-08-17T05:28:06.307Z,69341.63
2022-08-17T05:30:33.750Z,69367.31
2022-08-17T05:33:27.156Z,69373.44
2022-08-17T05:35:55.636Z,69385.44
2022-08-17T05:38:23.566Z,69404.28
2022-08-17T05:40:50.682Z,69398.56
2022-08-17T05:43:19.307Z,69393.09
2022-08-17T05:45:56.435Z,69413.25
2022-08-17T05:48:35.613Z,69402.16
2022-08-17T05:51:15.629Z,69413.97
2022-08-17T05:53:42.508Z,69430.72
2022-08-17T05:56:29.521Z,69447.66
2022-08-17T05:59:04.965Z,69458.69
2022-08-17T06:01:35.477Z,69476.25
2022-08-17T06:04:11.340Z,69503.25
2022-08-17T06:07:01.108Z,69529.53
2022-08-17T06:09:34.165Z,69541.50
2022-08-17T06:12:14.474Z,69579.34
2022-08-17T06:15:01.514Z,69603.09
2022-08-17T06:17:28.774Z,69580.56
2022-08-17T06:19:58.296Z,69608.81
2022-08-17T06:22:33.407Z,69633.38
2022-08-17T06:25:04.551Z,69633.38
2022-08-17T06:27:40.630Z,69642.13
2022-08-17T06:30:13.947Z,69651.09
2022-08-17T06:32:42.842Z,69678.41
2022-08-17T06:35:12.702Z,69701.31
2022-08-17T06:37:49.586Z,69710.75
2022-08-17T06:40:25.448Z,69710.63
2022-08-17T06:43:06.506Z,69731.19
2022-08-17T06:45:52.871Z,69759.41
2022-08-17T06:48:24.502Z,69794.88
2022-08-17T06:51:05.978Z,69827.34
2022-08-17T06:53:38.426Z,69850.25
2022-08-17T06:56:05.430Z,69841.94
2022-08-17T06:58:33.427Z,69837.38
2022-08-17T07:01:05.005Z,69848.69
2022-08-17T07:03:38.034Z,69851.97
2022-08-17T07:06:18.558Z,69858.25
2022-08-17T07:09:11.787Z,69871.59
2022-08-17T07:11:40.888Z,69884.19
2022-08-17T07:14:25.294Z,69896.06
2022-08-17T07:16:53.780Z,69911.53
2022-08-17T07:19:22.560Z,69918.97
2022-08-17T07:21:57.344Z,69926.84
2022-08-17T07:24:35.483Z,69919.56
2022-08-17T07:27:28.578Z,69912.69
2022-08-17T07:29:57.850Z,69935.16
2022-08-17T07:32:32.821Z,69915.81
2022-08-17T07:35:18.415Z,69919.25
2022-08-17T07:37:53.090Z,69920.41
2022-08-17T07:40:22.766Z,69926.09
2022-08-17T07:43:05.162Z,69962.66
2022-08-17T07:45:52.583Z,69972.66
2022-08-17T07:48:21.269Z,69991.75
2022-08-17T07:50:49.709Z,69995.91
2022-08-17T07:53:19.397Z,70011.38
2022-08-17T07:55:46.478Z,70039.28
2022-08-17T07:58:18.093Z,70033.00
2022-08-17T08:00:45.536Z,70038.88
2022-08-17T08:03:13.469Z,70043.44
2022-08-17T08:06:09.691Z,70049.78
2022-08-17T08:08:43.683Z,70054.91
2022-08-17T08:11:15.532Z,70069.84
2022-08-17T08:13:45.562Z,70065.91
2022-08-17T08:16:53.663Z,70124.56
2022-08-17T08:19:21.225Z,70114.06
2022-08-17T08:21:59.128Z,70115.78
2022-08-17T08:24:35.548Z,70155.84
2022-08-17T08:27:21.073Z,70153.41
2022-08-17T08:30:04.764Z,70137.34
2022-08-17T08:32:50.674Z,70132.97
2022-08-17T08:35:26.652Z,70176.47
2022-08-17T08:38:01.841Z,70212.47
2022-08-17T08:40:38.882Z,70228.56
2022-08-17T08:43:08.685Z,70219.00
2022-08-17T08:45:58.385Z,70229.91
2022-08-17T08:48:53.123Z,70249.97
2022-08-17T08:51:21.480Z,70252.84
2022-08-17T08:53:58.693Z,70300.72
2022-08-17T08:56:35.276Z,70286.13
2022-08-17T08:59:07.913Z,70328.41
2022-08-17T09:01:39.111Z,70311.38
2022-08-17T09:04:24.803Z,70341.19
2022-08-17T09:06:57.937Z,70338.94
2022-08-17T09:09:48.498Z,70381.81
2022-08-17T09:12:21.300Z,70345.81
2022-08-17T09:14:51.664Z,70365.34
2022-08-17T09:17:25.429Z,70382.53
2022-08-17T09:20:06.009Z,70394.00
2022-08-17T09:22:37.961Z,70381.97
2022-08-17T09:25:16.365Z,70406.66
2022-08-17T09:27:47.575Z,70401.50
2022-08-17T09:30:14.957Z,70410.69
2022-08-17T09:32:52.193Z,70442.28
2022-08-17T09:35:22.844Z,70464.66
2022-08-17T09:38:03.877Z,70460.06
2022-08-17T09:40:34.360Z,70494.41
2022-08-17T09:43:07.771Z,70496.28
2022-08-17T09:45:34.824Z,70515.81
2022-08-17T09:48:07.322Z,70489.94
2022-08-17T09:50:55.344Z,70492.84
2022-08-17T09:53:33.261Z,70483.63
2022-08-17T09:56:24.225Z,70488.81
2022-08-17T09:58:51.376Z,70499.16
2022-08-17T10:01:31.472Z,70546.13
2022-08-17T10:03:58.520Z,70569.84
2022-08-17T10:06:29.915Z,70583.03
2022-08-17T10:08:57.508Z,70572.72
2022-08-17T10:11:54.613Z,70553.59
2022-08-17T10:14:36.570Z,70558.91
2022-08-17T10:17:21.418Z,70582.47
2022-08-17T10:20:03.070Z,70615.69
2022-08-17T10:22:55.561Z,70609.94
2022-08-17T10:25:54.698Z,70583.59
2022-08-17T10:28:28.919Z,70601.44
2022-08-17T10:33:55.917Z,70629.06
2022-08-17T10:36:22.981Z,70644.56
2022-08-17T10:38:59.646Z,70626.16
2022-08-17T10:41:40.767Z,70635.94
2022-08-17T10:44:38.043Z,70676.19
2022-08-17T10:47:11.905Z,70662.97
2022-08-17T10:49:47.918Z,70708.28
2022-08-17T10:52:21.810Z,70724.53
2022-08-17T10:55:07.975Z,70735.44
2022-08-17T10:57:37.458Z,70706.09
2022-08-17T11:00:16.070Z,70716.47
2022-08-17T11:02:52.069Z,70653.75
2022-08-17T11:05:43.521Z,70695.03
2022-08-17T11:08:36.252Z,70704.25
2022-08-17T11:11:24.149Z,70691.69
2022-08-17T11:14:14.042Z,70689.41
2022-08-17T11:16:48.054Z,70731.41
2022-08-17T11:19:33.520Z,70747.50
2022-08-17T11:22:19.067Z,70739.47
2022-08-17T11:24:48.054Z,70754.97
2022-08-17T11:27:23.096Z,70777.41
2022-08-17T11:30:01.295Z,70771.66
2022-08-17T11:32:29.151Z,70770.56
2022-08-17T11:35:15.819Z,70699.75
2022-08-17T11:37:52.284Z,70696.31
2022-08-17T11:40:38.521Z,70707.84
2022-08-17T11:43:13.998Z,70708.28
2022-08-17T11:45:49.802Z,70679.06
2022-08-17T11:48:38.391Z,70691.13
2022-08-17T11:51:28.772Z,70682.53
2022-08-17T11:54:21.386Z,70706.66
2022-08-17T11:56:49.753Z,70696.88
2022-08-17T11:59:32.766Z,70714.69
2022-08-17T12:02:01.052Z,70731.97
2022-08-17T12:04:30.047Z,70718.72
2022-08-17T12:07:00.285Z,70723.94
2022-08-17T12:09:32.384Z,70728.53
2022-08-17T12:12:13.409Z,70734.84
2022-08-17T12:15:09.979Z,70729.69
2022-08-17T12:17:41.498Z,70750.94
2022-08-17T12:20:23.155Z,70785.97
2022-08-17T12:23:08.842Z,70777.41
2022-08-17T12:25:40.707Z,70798.75
2022-08-17T12:28:20.834Z,70790.06
2022-08-17T12:30:49.482Z,70780.28
2022-08-17T12:33:25.594Z,70772.22
2022-08-17T12:35:59.457Z,70767.06
2022-08-17T12:38:32.361Z,70792.97
2022-08-17T12:41:21.295Z,70793.53
2022-08-17T12:44:03.436Z,70811.94
2022-08-17T12:46:44.728Z,70863.06
2022-08-17T12:49:16.476Z,70849.34
2022-08-17T12:51:44.565Z,70879.66
2022-08-17T12:54:22.034Z,70884.97
2022-08-17T12:56:49.131Z,70890.19
2022-08-17T12:59:29.976Z,70852.78
2022-08-17T13:01:57.957Z,70878.13
2022-08-17T13:04:29.518Z,70848.19
2022-08-17T13:06:58.171Z,70834.38
2022-08-17T13:09:35.644Z,70822.38
2022-08-17T13:12:07.150Z,70810.69
2022-08-17T13:14:35.298Z,70782.03
2022-08-17T13:17:06.323Z,70799.84
2022-08-17T13:19:48.165Z,70832.56
2022-08-17T13:22:15.298Z,70781.44
2022-08-17T13:24:54.179Z,70769.34
2022-08-17T13:27:22.569Z,70785.47
2022-08-17T13:29:53.509Z,70813.72
2022-08-17T13:32:23.163Z,70813.72
2022-08-17T13:35:12.993Z,70813.16
2022-08-17T13:37:56.100Z,70810.25
2022-08-17T13:40:23.037Z,70830.28
2022-08-17T13:42:54.073Z,70849.94
2022-08-17T13:45:38.887Z,70863.16
2022-08-17T13:48:11.922Z,70895.94
2022-08-17T13:50:43.157Z,70934.03
2022-08-17T13:53:16.491Z,70940.84
2022-08-17T13:55:51.767Z,70917.28
2022-08-17T13:58:20.475Z,70894.22
2022-08-17T14:00:47.509Z,70901.22
2022-08-17T14:03:15.341Z,70903.53
2022-08-17T14:05:42.300Z,70898.91
2022-08-17T14:08:11.290Z,70899.41
2022-08-17T14:10:38.368Z,70897.13
2022-08-17T14:13:06.389Z,70902.88
2022-08-17T14:15:55.869Z,70899.50
2022-08-17T14:18:55.478Z,70840.69
2022-08-17T14:21:09.047Z,70796.97
2022-08-17T14:23:36.927Z,70807.97
2022-08-17T14:26:04.677Z,70758.41
2022-08-17T14:28:32.040Z,70750.94
2022-08-17T14:31:00.777Z,70758.34
2022-08-17T14:33:28.849Z,70716.91
2022-08-17T14:35:57.422Z,70720.34
2022-08-17T14:38:24.725Z,70737.16
2022-08-17T14:40:52.408Z,70753.72
2022-08-17T14:43:20.993Z,70771.00
2022-08-17T14:45:47.999Z,70755.56
2022-08-17T14:48:15.685Z,70789.97
2022-08-17T14:50:43.275Z,70782.03
2022-08-17T14:53:12.013Z,70770.50
2022-08-17T14:55:42.058Z,70798.13
2022-08-17T14:58:09.417Z,70834.28
2022-08-17T15:00:37.036Z,70846.53
2022-08-17T15:03:04.866Z,70832.66
2022-08-17T15:05:33.693Z,70822.94
2022-08-17T15:08:01.482Z,70772.22
2022-08-17T15:10:29.390Z,70756.19
2022-08-17T15:12:56.880Z,70721.50
2022-08-17T15:15:24.238Z,70730.00
2022-08-17T15:17:52.917Z,70718.72
2022-08-17T15:20:21.971Z,70712.97
2022-08-17T15:22:55.622Z,70726.81
2022-08-17T15:25:24.060Z,70752.72
2022-08-17T15:27:51.251Z,70717.56
2022-08-17T15:30:18.643Z,70691.13
2022-08-17T15:32:51.448Z,70701.53
2022-08-17T15:35:28.005Z,70686.53
2022-08-17T15:37:56.787Z,70665.84
2022-08-17T15:40:23.837Z,70642.81
2022-08-17T15:42:51.240Z,70644.44
2022-08-17T15:45:20.814Z,70627.31
2022-08-17T15:47:47.770Z,70609.47
2022-08-17T15:50:14.954Z,70620.88
2022-08-17T15:52:45.048Z,70611.09
2022-08-17T15:55:13.075Z,70581.88
2022-08-17T15:57:40.364Z,70595.69
2022-08-17T16:00:08.568Z,70575.00
2022-08-17T16:03:13.969Z,70617.56
2022-08-17T16:05:28.604Z,70630.66
2022-08-17T16:07:59.825Z,70650.31
2022-08-17T16:10:35.710Z,70663.41
2022-08-17T16:13:03.772Z,70654.34
2022-08-17T16:15:33.463Z,70656.50
2022-08-17T16:18:00.504Z,70654.34
2022-08-17T16:20:27.489Z,70656.50
2022-08-17T16:22:55.129Z,70656.66
2022-08-17T16:25:38.273Z,70641.13
2022-08-17T16:28:12.164Z,70630.06
2022-08-17T16:30:39.202Z,70598.59
2022-08-17T16:33:06.166Z,70589.94
2022-08-17T16:35:33.312Z,70593.38
2022-08-17T16:38:00.460Z,70608.19
2022-08-17T16:40:29.002Z,70591.53
2022-08-17T16:42:57.808Z,70566.38
2022-08-17T16:45:26.778Z,70549.72
2022-08-17T16:47:54.787Z,70514.09
2022-08-17T16:50:22.924Z,70522.13
2022-08-17T16:52:50.343Z,70506.63
2022-08-17T16:55:19.911Z,70493.41
2022-08-17T16:57:50.461Z,70480.75
2022-08-17T17:00:19.405Z,70471.41
2022-08-17T17:02:47.751Z,70455.91
2022-08-17T17:05:30.239Z,70442.84
2022-08-17T17:08:01.110Z,70414.16
2022-08-17T17:10:32.262Z,70435.97
2022-08-17T17:13:03.995Z,70433.50
2022-08-17T17:15:43.356Z,70421.44
2022-08-17T17:18:11.179Z,70410.66
2022-08-17T17:20:47.777Z,70407.78
2022-08-17T17:23:23.919Z,70402.63
2022-08-17T17:26:05.597Z,70390.00
2022-08-17T17:28:46.324Z,70353.28
2022-08-17T17:31:19.846Z,70364.16
2022-08-17T17:33:52.933Z,70358.28
2022-08-17T17:36:19.857Z,70349.81
2022-08-17T17:38:49.627Z,70325.13
2022-08-17T17:41:25.463Z,70346.34
2022-08-17T17:44:01.941Z,70340.59
2022-08-17T17:46:37.868Z,70365.59
2022-08-17T17:49:06.238Z,70339.75
2022-08-17T17:52:07.596Z,70310.78
2022-08-17T17:55:10.512Z,70304.31
2022-08-17T17:57:49.813Z,70304.16
2022-08-17T18:00:21.918Z,70296.13
2022-08-17T18:03:15.162Z,70280.34
2022-08-17T18:05:54.654Z,70288.66
2022-08-17T18:08:38.761Z,70270.84
2022-08-17T18:11:12.726Z,70244.25
2022-08-17T18:13:56.630Z,70263.41
2022-08-17T18:16:26.516Z,70270.28
2022-08-17T18:18:57.976Z,70268.88
2022-08-17T18:21:36.998Z,70276.16
2022-08-17T18:24:05.708Z,70266.41
2022-08-17T18:26:32.575Z,70255.66
2022-08-17T18:28:59.970Z,70252.78
2022-08-17T18:31:26.877Z,70248.22
2022-08-17T18:33:55.324Z,70256.66
2022-08-17T18:36:31.549Z,70259.69
2022-08-17T18:39:14.154Z,70269.88
2022-08-17T18:41:42.802Z,70269.72
2022-08-17T18:44:31.196Z,70264.56
2022-08-17T18:47:07.231Z,70271.44
2022-08-17T18:49:34.542Z,70276.75
2022-08-17T18:52:07.537Z,70280.19
2022-08-17T18:54:36.166Z,70282.50
2022-08-17T18:57:04.845Z,70284.22
2022-08-17T18:59:34.928Z,70305.47
2022-08-17T19:02:32.489Z,70312.34
2022-08-17T19:05:10.532Z,70307.75
2022-08-17T19:07:41.880Z,70305.88
2022-08-17T19:10:13.535Z,70307.31
2022-08-17T19:12:47.308Z,70311.75
2022-08-17T19:15:33.000Z,70307.03
2022-08-17T19:18:19.745Z,70264.91
2022-08-17T19:20:55.129Z,70259.19
2022-08-17T19:23:22.313Z,70280.94
2022-08-17T19:25:50.712Z,70273.28
2022-08-17T19:28:27.214Z,70256.25
2022-08-17T19:30:56.451Z,70248.22
2022-08-17T19:33:24.056Z,70214.41
2022-08-17T19:35:58.850Z,70222.41
2022-08-17T19:38:29.635Z,70208.44
2022-08-17T19:40:59.697Z,70200.41
2022-08-17T19:43:33.924Z,70189.94
2022-08-17T19:46:02.676Z,70168.47
2022-08-17T19:48:51.505Z,70163.16
2022-08-17T19:51:21.289Z,70145.94
2022-08-17T19:54:05.356Z,70128.16
2022-08-17T19:56:45.340Z,70127.59
2022-08-17T19:59:18.349Z,70124.72
2022-08-17T20:01:48.995Z,70088.84
2022-08-17T20:04:38.861Z,70106.94
2022-08-17T20:07:08.115Z,70069.91
2022-08-17T20:09:40.216Z,70089.75
2022-08-17T20:12:18.255Z,70083.28
2022-08-17T20:14:55.330Z,70072.38
2022-08-17T20:17:35.267Z,70056.50
2022-08-17T20:20:24.052Z,70041.28
2022-08-17T20:22:59.355Z,70055.91
2022-08-17T20:25:38.459Z,70064.13
2022-08-17T20:28:19.503Z,70068.53
2022-08-17T20:30:50.741Z,70070.09
2022-08-17T20:33:37.258Z,70055.50
2022-08-17T20:36:18.384Z,70050.75
2022-08-17T20:38:48.101Z,70031.41
2022-08-17T20:41:17.275Z,70027.09
2022-08-17T20:43:51.108Z,70016.38
2022-08-17T20:46:24.955Z,70021.69
2022-08-17T20:49:15.006Z,70019.09
2022-08-17T20:51:45.906Z,70003.59
2022-08-17T20:54:40.652Z,70012.06
2022-08-17T20:57:13.704Z,69974.22
2022-08-17T20:59:45.099Z,69997.63
2022-08-17T21:02:19.430Z,69982.00
2022-08-17T21:04:49.608Z,69964.22
2022-08-17T21:07:29.173Z,69928.97
2022-08-17T21:10:10.502Z,69963.66
2022-08-17T21:12:39.504Z,69925.53
2022-08-17T21:15:10.611Z,69938.88
2022-08-17T21:17:47.340Z,69940.59
2022-08-17T21:20:34.609Z,69953.03
2022-08-17T21:23:01.506Z,69949.34
2022-08-17T21:25:28.493Z,69938.44
2022-08-17T21:28:14.212Z,69942.31
2022-08-17T21:30:44.581Z,69929.28
2022-08-17T21:33:29.562Z,69900.22
2022-08-17T21:35:59.353Z,69898.19
2022-08-17T21:38:37.584Z,69893.75
2022-08-17T21:41:04.941Z,69875.63
2022-08-17T21:43:34.289Z,69870.28
2022-08-17T21:46:20.891Z,69856.72
2022-08-17T21:48:54.340Z,69854.25
2022-08-17T21:51:26.485Z,69843.41
2022-08-17T21:53:59.002Z,69836.50
2022-08-17T21:56:28.920Z,69834.22
2022-08-17T21:58:59.569Z,69846.09
2022-08-17T22:01:26.790Z,69843.41
2022-08-17T22:03:58.913Z,69847.41
2022-08-17T22:06:34.235Z,69830.38
2022-08-17T22:09:07.319Z,69837.91
2022-08-17T22:11:53.807Z,69831.38
2022-08-17T22:14:25.709Z,69820.19
2022-08-17T22:17:09.582Z,69841.50
2022-08-17T22:19:37.737Z,69840.94
2022-08-17T22:22:06.356Z,69818.59
2022-08-17T22:24:33.972Z,69818.03
2022-08-17T22:27:07.560Z,69809.03
2022-08-17T22:29:42.688Z,69810.91
2022-08-17T22:32:09.723Z,69820.47
2022-08-17T22:34:38.498Z,69813.44
2022-08-17T22:37:27.767Z,69797.75
2022-08-17T22:39:59.110Z,69784.03
2022-08-17T22:42:26.272Z,69782.81
2022-08-17T22:44:54.073Z,69757.94
2022-08-17T22:47:29.343Z,69752.94
2022-08-17T22:49:58.823Z,69750.50
2022-08-17T22:52:32.036Z,69739.81
2022-08-17T22:55:20.253Z,69752.06
2022-08-17T22:58:06.431Z,69733.47
2022-08-17T23:00:41.786Z,69730.06
2022-08-17T23:03:09.101Z,69735.03
2022-08-17T23:05:36.863Z,69726.06
2022-08-17T23:08:04.326Z,69720.56
2022-08-17T23:10:31.782Z,69694.00
2022-08-17T23:13:00.308Z,69699.41
2022-08-17T23:15:32.944Z,69687.88
2022-08-17T23:18:05.142Z,69694.59
2022-08-17T23:20:34.172Z,69678.56
2022-08-17T23:23:01.349Z,69686.56
2022-08-17T23:25:30.221Z,69673.13
2022-08-17T23:27:58.520Z,69654.38
2022-08-17T23:30:28.585Z,69648.25
2022-08-17T23:32:56.578Z,69659.13
2022-08-17T23:35:39.042Z,69656.09
2022-08-17T23:38:07.573Z,69639.28
2022-08-17T23:40:34.664Z,69644.25
2022-08-17T23:43:04.547Z,69641.56
2022-08-17T23:45:36.928Z,69646.38
2022-08-17T23:48:06.381Z,69642.53
2022-08-17T23:50:34.417Z,69639.66
2022-08-17T23:53:03.138Z,69635.53
2022-08-17T23:55:34.730Z,69641.25
2022-08-17T23:58:03.956Z,69641.25
